Time;durP1;ratioP1;P1;durP2;ratioP2;P2;SDS_P1;SDS_P2;PMS_P1;PMS_P2;Temp;Humidity;BMP_temperature;BMP_pressure;BME280_temperature;BME280_humidity;BME280_pressure;Samples;Min_cycle;Max_cycle;Signal;HPM_P1;HPM_P2
2022/08/24 00:00:24;;;;;;;9.80;7.45;;;;;;;21.88;55.73;100075.60;1643770;86;22068;-73
2022/08/24 00:02:51;;;;;;;9.58;8.20;;;;;;;21.86;55.93;100072.39;1618434;86;21128;-78
2022/08/24 00:05:20;;;;;;;10.50;7.03;;;;;;;21.83;55.76;100074.37;1592183;90;20996;-74
2022/08/24 00:07:48;;;;;;;12.15;7.22;;;;;;;21.79;55.73;100074.20;1589405;88;21072;-71
2022/08/24 00:10:15;;;;;;;12.35;7.75;;;;;;;21.77;55.76;100083.31;1607203;88;21041;-70
2022/08/24 00:12:42;;;;;;;13.45;7.45;;;;;;;21.75;55.76;100075.39;1595675;88;21126;-69
2022/08/24 00:15:10;;;;;;;9.28;6.83;;;;;;;21.71;55.80;100079.89;1594301;88;21101;-69
2022/08/24 00:17:37;;;;;;;14.13;7.92;;;;;;;21.65;55.59;100077.03;1618255;88;21201;-72
2022/08/24 00:20:05;;;;;;;9.98;6.55;;;;;;;21.62;55.44;100085.88;1637017;87;21096;-71
2022/08/24 00:22:32;;;;;;;9.33;7.83;;;;;;;21.57;55.44;100088.75;1622031;87;21123;-73
2022/08/24 00:24:58;;;;;;;13.13;7.28;;;;;;;21.55;55.21;100086.88;1607761;88;21532;-74
2022/08/24 00:27:25;;;;;;;11.28;7.47;;;;;;;21.52;55.16;100091.61;1591979;88;21037;-69
2022/08/24 00:29:52;;;;;;;9.80;6.10;;;;;;;21.50;55.04;100088.92;1617620;88;20996;-70
2022/08/24 00:32:19;;;;;;;7.97;7.17;;;;;;;21.46;54.98;100092.86;1595647;88;21105;-69
2022/08/24 00:34:45;;;;;;;12.47;7.17;;;;;;;21.43;54.91;100087.20;1623975;86;21040;-73
2022/08/24 00:37:12;;;;;;;12.98;7.40;;;;;;;21.42;54.93;100098.70;1645837;87;21122;-73
2022/08/24 00:39:39;;;;;;;17.65;7.72;;;;;;;21.40;54.75;100102.30;1632717;86;20970;-72
2022/08/24 00:42:06;;;;;;;7.55;6.70;;;;;;;21.40;54.70;100109.14;1611236;86;21122;-71
2022/08/24 00:44:33;;;;;;;11.08;6.85;;;;;;;21.39;54.68;100108.11;1614313;86;21123;-78
2022/08/24 00:47:05;;;;;;;8.90;7.15;;;;;;;21.37;54.59;100109.78;1614340;88;21069;-71
2022/08/24 00:49:40;;;;;;;7.60;6.20;;;;;;;21.36;54.52;100104.61;1616983;86;21354;-69
2022/08/24 00:52:26;;;;;;;7.45;6.65;;;;;;;21.30;54.71;100107.47;1641522;86;21051;-71
2022/08/24 00:54:59;;;;;;;9.05;7.03;;;;;;;21.25;54.81;100110.32;1644142;86;21036;-69
2022/08/24 00:57:30;;;;;;;8.73;7.05;;;;;;;21.20;54.97;100106.34;1649423;86;21024;-69
2022/08/24 01:00:01;;;;;;;10.23;6.95;;;;;;;21.13;55.20;100105.13;1634066;86;21619;-71
2022/08/24 01:02:31;;;;;;;9.45;7.55;;;;;;;21.04;55.51;100102.88;1617986;88;21112;-70
2022/08/24 01:05:02;;;;;;;8.83;7.62;;;;;;;20.95;55.55;100105.55;1621639;86;21074;-71
2022/08/24 01:07:30;;;;;;;7.70;6.65;;;;;;;20.85;55.72;100107.14;1645394;87;21715;-72
2022/08/24 01:10:01;;;;;;;12.43;6.70;;;;;;;20.80;55.82;100112.17;1631133;86;21593;-72
2022/08/24 01:12:30;;;;;;;14.25;7.10;;;;;;;20.73;56.11;100110.40;1617711;88;21072;-72
2022/08/24 01:14:57;;;;;;;8.60;6.40;;;;;;;20.68;56.00;100111.87;1619380;86;21279;-71
2022/08/24 01:20:09;;;;;;;10.20;7.37;;;;;;;20.57;56.02;100112.41;1616532;87;21051;-70
2022/08/24 01:23:06;;;;;;;6.97;5.42;;;;;;;20.52;56.05;100118.80;1602414;89;21071;-74
2022/08/24 01:25:36;;;;;;;9.93;7.20;;;;;;;20.52;56.05;100118.80;1616702;87;21597;-72
2022/08/24 01:28:12;;;;;;;11.65;6.40;;;;;;;20.52;55.76;100115.25;1629698;88;21177;-72
2022/08/24 01:30:38;;;;;;;12.23;7.33;;;;;;;20.48;55.98;100116.39;1608186;87;20952;-72
2022/08/24 01:33:07;;;;;;;17.23;8.78;;;;;;;20.44;56.21;100122.22;1602397;89;21036;-73
2022/08/24 01:35:35;;;;;;;15.68;7.67;;;;;;;20.39;56.30;100122.33;1622790;87;21076;-74
2022/08/24 01:38:06;;;;;;;13.08;8.20;;;;;;;20.28;56.15;100131.27;1627336;87;21092;-72
2022/08/24 01:40:39;;;;;;;13.78;8.23;;;;;;;20.28;56.15;100131.27;1583103;88;21172;-72
2022/08/24 01:43:06;;;;;;;17.07;8.10;;;;;;;20.24;56.17;100130.81;1590079;90;21146;-73
2022/08/24 01:45:33;;;;;;;12.18;7.03;;;;;;;20.23;56.10;100127.27;1629427;86;21117;-71
2022/08/24 01:48:01;;;;;;;10.75;8.00;;;;;;;20.23;56.11;100130.55;1655305;86;21136;-73
2022/08/24 01:50:30;;;;;;;12.13;7.85;;;;;;;20.20;56.14;100131.14;1609154;88;21539;-71
2022/08/24 01:53:01;;;;;;;9.35;7.53;;;;;;;20.16;56.05;100129.58;1596360;88;21260;-72
2022/08/24 01:55:28;;;;;;;12.60;6.85;;;;;;;20.18;55.90;100133.39;1615624;86;20963;-73
2022/08/24 01:57:54;;;;;;;7.83;6.80;;;;;;;20.15;56.02;100139.44;1605423;88;20980;-73
2022/08/24 02:00:21;;;;;;;7.05;6.28;;;;;;;20.11;56.13;100137.87;1597359;86;21106;-74
2022/08/24 02:02:49;;;;;;;8.78;6.97;;;;;;;20.09;56.18;100139.30;1617661;88;21571;-75
2022/08/24 02:05:16;;;;;;;10.93;6.53;;;;;;;20.02;56.09;100141.05;1620194;86;21832;-74
2022/08/24 02:07:44;;;;;;;10.75;6.62;;;;;;;19.99;56.24;100140.30;1652747;86;21008;-73
2022/08/24 02:10:13;;;;;;;11.97;7.35;;;;;;;19.93;56.45;100139.57;1635468;86;21072;-73
2022/08/24 02:12:41;;;;;;;13.32;7.03;;;;;;;19.88;56.52;100142.39;1617639;88;21066;-72
2022/08/24 02:15:10;;;;;;;11.35;5.83;;;;;;;19.88;56.41;100139.66;1635244;86;21065;-76
2022/08/24 02:17:36;;;;;;;11.70;6.70;;;;;;;19.85;56.45;100136.17;1645363;87;21172;-73
2022/08/24 02:20:05;;;;;;;12.07;7.45;;;;;;;19.85;56.40;100137.55;1628186;86;21103;-72
2022/08/24 02:22:31;;;;;;;11.08;7.00;;;;;;;19.85;56.41;100138.09;1618822;88;21557;-75
2022/08/24 02:24:58;;;;;;;12.82;8.18;;;;;;;19.83;56.38;100139.75;1635619;86;21612;-74
2022/08/24 02:27:25;;;;;;;20.25;8.88;;;;;;;19.82;56.27;100141.41;1653166;86;21020;-74
2022/08/24 02:29:52;;;;;;;10.38;7.85;;;;;;;19.80;56.07;100141.72;1639200;86;21078;-73
2022/08/24 02:32:19;;;;;;;18.48;10.43;;;;;;;19.79;56.09;100142.83;1629657;87;21103;-73
2022/08/24 02:34:47;;;;;;;17.87;11.78;;;;;;;19.76;56.17;100143.41;1629476;86;20964;-72
2022/08/24 02:37:14;;;;;;;23.12;13.80;;;;;;;19.72;56.25;100142.39;1629759;88;21067;-73
2022/08/24 02:39:40;;;;;;;30.68;12.93;;;;;;;19.70;56.32;100142.45;1624804;86;21068;-71
2022/08/24 02:42:08;;;;;;;23.18;14.98;;;;;;;19.67;56.33;100139.74;1617933;88;21542;-73
2022/08/24 02:44:36;;;;;;;26.62;15.75;;;;;;;19.65;56.41;100139.80;1627909;86;21055;-72
2022/08/24 02:47:02;;;;;;;26.48;15.20;;;;;;;19.65;56.36;100139.25;1652837;86;21003;-73
2022/08/24 02:49:30;;;;;;;29.20;18.62;;;;;;;19.61;56.35;100140.96;1615960;88;21140;-73
2022/08/24 02:51:57;;;;;;;29.15;20.85;;;;;;;19.58;56.37;100138.81;1611649;88;21059;-73
2022/08/24 02:54:24;;;;;;;37.55;23.62;;;;;;;19.51;56.53;100131.03;1598506;88;21381;-74
2022/08/24 02:56:51;;;;;;;51.40;23.27;;;;;;;19.49;56.52;100131.87;1599428;89;21034;-73
2022/08/24 02:59:18;;;;;;;44.33;24.87;;;;;;;19.48;56.49;100131.60;1599129;89;20951;-73
2022/08/24 03:01:46;;;;;;;53.35;28.42;;;;;;;19.48;56.43;100138.97;1598295;89;21051;-73
2022/08/24 03:04:13;;;;;;;47.03;28.25;;;;;;;19.48;56.46;100141.70;1590114;88;21603;-72
2022/08/24 03:06:39;;;;;;;54.40;29.10;;;;;;;19.45;56.40;100138.22;1594066;88;22071;-73
2022/08/24 03:09:06;;;;;;;49.42;26.82;;;;;;;19.42;56.30;100145.06;1612007;88;21117;-79
2022/08/24 03:11:33;;;;;;;54.55;28.77;;;;;;;19.38;56.49;100141.83;1587269;90;21136;-75
2022/08/24 03:14:00;;;;;;;54.58;31.57;;;;;;;19.33;56.63;100144.09;1573183;90;21154;-81
2022/08/24 03:16:27;;;;;;;60.45;34.10;;;;;;;19.27;56.79;100145.84;1558074;91;21053;-76
2022/08/24 03:18:56;;;;;;;50.23;28.30;;;;;;;19.25;56.91;100150.22;1558462;92;21131;-76
2022/08/24 03:21:24;;;;;;;64.92;28.67;;;;;;;19.22;56.87;100156.83;1576631;90;21079;-75
2022/08/24 03:23:51;;;;;;;62.13;29.27;;;;;;;19.20;56.76;100159.03;1608328;89;21205;-76
2022/08/24 03:26:19;;;;;;;48.73;25.65;;;;;;;19.16;56.90;100155.53;1599577;88;20969;-73
2022/08/24 03:28:45;;;;;;;52.67;30.70;;;;;;;19.16;56.93;100156.90;1599958;89;21001;-72
2022/08/24 03:31:12;;;;;;;58.13;32.50;;;;;;;19.14;56.91;100163.19;1575333;90;21324;-73
2022/08/24 03:33:39;;;;;;;57.30;28.15;;;;;;;19.15;56.75;100159.91;1575597;90;20983;-72
2022/08/24 03:36:06;;;;;;;73.20;30.92;;;;;;;19.19;56.54;100163.67;1579531;89;21122;-71
2022/08/24 03:38:33;;;;;;;59.77;33.28;;;;;;;19.20;56.32;100156.30;1529503;91;21043;-73
2022/08/24 03:41:00;;;;;;;67.30;35.45;;;;;;;19.23;56.18;100163.91;1583052;89;21062;-73
2022/08/24 03:43:45;;;;;;;73.33;37.95;;;;;;;19.25;56.00;100163.05;1582902;89;21133;-75
2022/08/24 03:46:13;;;;;;;78.15;40.52;;;;;;;19.28;55.83;100169.29;1599169;89;21562;-75
2022/08/24 03:48:40;;;;;;;73.28;41.20;;;;;;;19.28;55.77;100159.16;1602054;88;21094;-73
2022/08/24 03:51:16;;;;;;;89.45;41.85;;;;;;;19.29;55.99;100164.07;1598215;89;21108;-75
2022/08/24 03:53:43;;;;;;;75.03;38.28;;;;;;;19.25;56.04;100166.59;1639364;87;21142;-73
2022/08/24 03:56:09;;;;;;;64.42;35.23;;;;;;;19.25;56.00;100169.31;1633374;87;21109;-74
2022/08/24 03:58:38;;;;;;;63.78;34.65;;;;;;;19.28;55.78;100176.11;1628971;87;21557;-73
2022/08/24 04:01:06;;;;;;;63.85;33.50;;;;;;;19.27;55.84;100173.93;1629441;86;21028;-73
2022/08/24 04:03:42;;;;;;;60.50;31.23;;;;;;;19.30;55.78;100171.97;1629200;86;21066;-74
2022/08/24 04:06:10;;;;;;;63.87;31.82;;;;;;;19.31;55.57;100176.32;1602204;88;21039;-73
2022/08/24 04:08:37;;;;;;;54.53;30.40;;;;;;;19.30;55.73;100180.15;1621736;88;21135;-74
2022/08/24 04:11:03;;;;;;;59.40;29.80;;;;;;;19.30;55.60;100176.61;1621467;88;21654;-74
2022/08/24 04:13:30;;;;;;;45.10;25.02;;;;;;;19.30;55.40;100173.33;1641657;86;20932;-73
2022/08/24 04:16:03;;;;;;;52.05;25.27;;;;;;;19.32;55.05;100176.58;1643708;86;21072;-74
2022/08/24 04:18:30;;;;;;;49.15;25.85;;;;;;;19.36;55.03;100175.44;1654347;86;21501;-74
2022/08/24 04:20:57;;;;;;;51.28;22.95;;;;;;;19.41;54.94;100179.45;1653958;85;21023;-73
2022/08/24 04:23:25;;;;;;;43.45;20.82;;;;;;;19.45;54.71;100176.41;1646645;86;21032;-72
2022/08/24 04:25:52;;;;;;;33.15;18.85;;;;;;;19.50;54.39;100176.33;1610372;86;21122;-73
2022/08/24 04:28:19;;;;;;;33.88;18.55;;;;;;;19.54;54.23;100174.62;1654160;86;21052;-72
2022/08/24 04:30:50;;;;;;;35.73;19.73;;;;;;;19.57;54.05;100169.37;1647455;86;21212;-72
2022/08/24 04:33:28;;;;;;;35.98;17.80;;;;;;;19.61;53.79;100173.70;1608336;88;22016;-71
2022/08/24 04:35:55;;;;;;;23.75;14.18;;;;;;;19.65;53.93;100172.00;1588200;90;21568;-73
2022/08/24 04:38:23;;;;;;;33.75;15.85;;;;;;;19.66;53.44;100181.00;1599357;87;21023;-73
2022/08/24 04:40:56;;;;;;;25.23;13.28;;;;;;;19.69;53.49;100174.94;1612286;88;21070;-74
2022/08/24 04:43:24;;;;;;;25.48;13.43;;;;;;;19.75;53.46;100173.75;1650110;86;20993;-73
2022/08/24 04:45:51;;;;;;;18.90;12.25;;;;;;;19.80;53.36;100173.12;1628785;88;21901;-77
2022/08/24 04:48:18;;;;;;;21.25;12.28;;;;;;;19.85;53.19;100170.86;1613637;88;20977;-77
2022/08/24 04:50:45;;;;;;;15.93;9.60;;;;;;;19.90;53.30;100175.64;1639915;86;21139;-77
2022/08/24 04:53:12;;;;;;;25.97;11.30;;;;;;;19.95;53.14;100170.68;1655450;86;21016;-78
2022/08/24 04:55:48;;;;;;;24.75;12.30;;;;;;;19.99;53.17;100171.70;1629134;86;21010;-78
2022/08/24 04:58:16;;;;;;;19.62;11.43;;;;;;;20.02;53.29;100173.81;1626802;88;21138;-78
2022/08/24 05:00:43;;;;;;;14.58;9.33;;;;;;;20.08;53.21;100178.08;1632835;86;21129;-76
2022/08/24 05:03:10;;;;;;;14.90;9.40;;;;;;;20.13;52.60;100172.53;1639458;86;20980;-77
2022/08/24 05:05:46;;;;;;;16.95;8.00;;;;;;;20.19;52.49;100171.89;1624647;86;21587;-77
2022/08/24 05:08:13;;;;;;;11.57;6.75;;;;;;;20.23;52.30;100171.53;1625314;88;21602;-77
2022/08/24 05:10:44;;;;;;;11.55;7.12;;;;;;;20.30;51.80;100169.19;1636668;86;22183;-77
2022/08/24 05:13:11;;;;;;;9.58;6.83;;;;;;;20.33;51.50;100168.09;1656303;86;21688;-78
2022/08/24 05:15:43;;;;;;;17.40;6.62;;;;;;;20.38;51.74;100167.96;1627711;86;21063;-78
2022/08/24 05:18:10;;;;;;;13.60;8.48;;;;;;;20.43;51.41;100175.28;1599582;88;21078;-75
2022/08/24 05:20:45;;;;;;;20.00;7.45;;;;;;;20.49;51.22;100168.58;1633941;86;21104;-77
2022/08/24 05:23:13;;;;;;;14.00;9.00;;;;;;;20.55;50.99;100169.29;1656654;86;21801;-76
2022/08/24 05:25:40;;;;;;;13.28;8.38;;;;;;;20.59;50.95;100173.84;1628986;85;21511;-76
2022/08/24 05:28:07;;;;;;;12.45;7.37;;;;;;;20.63;50.88;100168.02;1625296;88;21039;-77
2022/08/24 05:30:35;;;;;;;17.30;5.53;;;;;;;20.70;51.02;100167.06;1632430;86;21561;-75
2022/08/24 05:33:03;;;;;;;8.20;4.92;;;;;;;20.78;50.93;100165.52;1656130;86;21028;-80
2022/08/24 05:35:30;;;;;;;15.55;5.20;;;;;;;20.84;50.93;100165.67;1651115;86;21153;-78
2022/08/24 05:37:58;;;;;;;14.38;6.97;;;;;;;20.90;50.83;100164.46;1631308;86;21568;-78
2022/08/24 05:40:26;;;;;;;11.70;7.40;;;;;;;20.97;50.78;100161.29;1654781;86;21092;-79
2022/08/24 05:42:54;;;;;;;11.00;9.10;;;;;;;21.04;50.62;100165.23;1631371;86;21052;-73
2022/08/24 05:45:21;;;;;;;6.47;5.25;;;;;;;21.10;50.37;100163.20;1651888;86;21076;-76
2022/08/24 05:47:48;;;;;;;10.93;5.50;;;;;;;21.18;49.77;100168.78;1656176;86;21566;-77
2022/08/24 05:50:25;;;;;;;12.60;5.08;;;;;;;21.23;49.72;100163.75;1613718;88;21092;-75
2022/08/24 05:52:51;;;;;;;19.77;4.40;;;;;;;21.33;49.72;100166.80;1624284;86;21628;-76
2022/08/24 05:55:19;;;;;;;9.58;4.47;;;;;;;21.40;49.50;100165.25;1645723;86;21044;-75
2022/08/24 05:57:45;;;;;;;9.43;4.12;;;;;;;21.47;49.37;100164.83;1653782;86;21558;-76
2022/08/24 06:00:14;;;;;;;9.43;5.28;;;;;;;21.52;49.37;100166.89;1652758;86;21273;-75
2022/08/24 06:02:45;;;;;;;13.45;4.92;;;;;;;21.60;49.27;100170.23;1632615;86;21028;-75
2022/08/24 06:05:12;;;;;;;8.53;5.30;;;;;;;21.68;49.15;100176.33;1642391;86;21066;-74
2022/08/24 06:07:40;;;;;;;15.15;6.37;;;;;;;21.75;49.02;100176.71;1653864;86;21566;-74
2022/08/24 06:10:10;;;;;;;15.25;5.80;;;;;;;21.82;48.92;100173.55;1653736;86;21523;-74
2022/08/24 06:12:37;;;;;;;15.05;5.65;;;;;;;21.91;48.81;100180.44;1633988;86;21101;-75
2022/08/24 06:15:05;;;;;;;14.90;5.10;;;;;;;21.98;48.62;100176.16;1654490;86;20985;-76
2022/08/24 06:17:33;;;;;;;6.53;4.70;;;;;;;22.07;48.14;100178.94;1612603;86;21540;-75
2022/08/24 06:19:59;;;;;;;6.62;4.55;;;;;;;22.16;47.79;100178.42;1660536;86;21137;-75
2022/08/24 06:22:26;;;;;;;11.40;5.15;;;;;;;22.24;47.44;100183.16;1659631;86;21074;-75
2022/08/24 06:27:40;;;;;;;11.70;5.10;;;;;;;22.41;47.37;100190.07;1648792;86;21594;-74
2022/08/24 06:30:10;;;;;;;15.05;4.85;;;;;;;22.52;47.04;100191.41;1632152;88;21137;-74
2022/08/24 06:32:59;;;;;;;11.43;4.87;;;;;;;22.60;46.86;100187.08;1601870;86;21110;-76
2022/08/24 06:35:31;;;;;;;13.28;5.50;;;;;;;22.69;46.35;100181.05;1590533;88;21018;-75
2022/08/24 06:37:57;;;;;;;13.00;4.83;;;;;;;22.80;45.82;100193.95;1592094;89;22029;-76
2022/08/24 06:40:25;;;;;;;9.55;5.05;;;;;;;22.90;45.76;100188.16;1614856;87;21004;-73
2022/08/24 06:42:51;;;;;;;10.60;5.22;;;;;;;22.97;45.28;100194.00;1654058;86;21039;-74
2022/08/24 06:45:29;;;;;;;11.15;5.20;;;;;;;23.04;44.97;100198.44;1657414;86;21007;-74
2022/08/24 06:47:56;;;;;;;11.15;6.10;;;;;;;23.12;44.81;100201.75;1660832;86;21047;-73
2022/08/24 06:50:24;;;;;;;12.95;6.08;;;;;;;23.18;45.02;100204.59;1656047;86;22333;-74
2022/08/24 06:52:50;;;;;;;20.23;5.67;;;;;;;23.26;44.85;100204.38;1636699;86;21103;-74
2022/08/24 06:55:17;;;;;;;9.50;4.65;;;;;;;23.33;44.78;100206.06;1604898;89;21532;-74
2022/08/24 06:57:44;;;;;;;7.78;4.65;;;;;;;23.41;44.71;100210.18;1588096;88;21025;-74
2022/08/24 07:00:12;;;;;;;9.80;5.17;;;;;;;23.49;44.73;100209.99;1591072;89;21074;-74
2022/08/24 07:02:41;;;;;;;13.15;5.75;;;;;;;23.60;44.52;100215.94;1518141;90;21156;-74
2022/08/24 07:05:08;;;;;;;19.60;5.40;;;;;;;23.70;44.39;100210.13;1594666;90;20935;-75
2022/08/24 07:07:56;;;;;;;16.90;5.30;;;;;;;23.81;44.16;100214.16;1582801;88;21027;-74
2022/08/24 07:10:23;;;;;;;8.70;4.67;;;;;;;23.91;43.79;100226.20;1627185;88;21560;-74
2022/08/24 07:12:52;;;;;;;11.88;5.28;;;;;;;23.99;43.64;100218.49;1604875;89;21570;-75
2022/08/24 07:15:18;;;;;;;11.78;5.03;;;;;;;24.05;43.46;100220.51;1585211;89;21330;-72
2022/08/24 07:17:48;;;;;;;15.90;6.65;;;;;;;24.12;43.50;100220.83;1585013;89;21519;-73
2022/08/24 07:20:16;;;;;;;9.98;5.10;;;;;;;24.19;43.27;100221.97;1584160;89;21600;-72
2022/08/24 07:22:47;;;;;;;11.18;5.15;;;;;;;24.26;43.29;100216.78;1528484;92;21047;-71
2022/08/24 07:25:14;;;;;;;18.95;5.08;;;;;;;24.35;43.27;100221.44;1576950;87;21033;-72
2022/08/24 07:27:40;;;;;;;11.60;4.33;;;;;;;24.43;43.24;100226.91;1600293;89;21140;-71
2022/08/24 07:30:09;;;;;;;16.10;5.35;;;;;;;24.53;43.14;100223.80;1595025;89;21084;-70
2022/08/24 07:32:36;;;;;;;6.55;4.03;;;;;;;24.63;42.98;100228.94;1579670;90;21047;-70
2022/08/24 07:35:03;;;;;;;18.07;4.72;;;;;;;24.72;42.79;100232.45;1582782;89;21076;-70
2022/08/24 07:37:31;;;;;;;9.53;4.90;;;;;;;24.81;42.69;100233.78;1553844;90;22121;-74
2022/08/24 07:39:57;;;;;;;19.20;6.42;;;;;;;24.90;42.52;100236.52;1578438;89;21806;-70
2022/08/24 07:42:24;;;;;;;16.77;6.30;;;;;;;25.00;42.45;100232.01;1579789;89;21016;-70
2022/08/24 07:44:50;;;;;;;12.05;6.37;;;;;;;25.10;42.13;100231.62;1601431;89;21112;-73
2022/08/24 07:47:17;;;;;;;17.85;5.78;;;;;;;25.17;41.46;100225.84;1553643;90;21092;-71
2022/08/24 07:49:45;;;;;;;15.90;5.95;;;;;;;25.25;41.37;100218.66;1601277;89;21041;-71
2022/08/24 07:52:12;;;;;;;18.65;5.28;;;;;;;25.35;41.35;100221.58;1579916;89;21565;-71
2022/08/24 07:54:39;;;;;;;11.55;5.05;;;;;;;25.43;41.08;100221.51;1586599;89;21606;-71
2022/08/24 07:57:05;;;;;;;14.05;5.83;;;;;;;25.53;41.10;100221.11;1604069;88;20954;-71
2022/08/24 07:59:34;;;;;;;29.40;6.40;;;;;;;25.63;40.68;100221.30;1602558;88;21510;-72
2022/08/24 08:02:01;;;;;;;18.65;6.95;;;;;;;25.72;40.07;100222.03;1601561;88;21076;-74
2022/08/24 08:04:30;;;;;;;22.85;6.87;;;;;;;25.81;39.93;100213.67;1648610;87;21520;-78
2022/08/24 08:06:59;;;;;;;24.37;5.53;;;;;;;25.89;39.70;100222.45;1633865;87;21587;-72
2022/08/24 08:09:27;;;;;;;27.65;6.67;;;;;;;25.98;39.49;100221.80;1614733;88;21088;-73
2022/08/24 08:11:54;;;;;;;11.80;5.12;;;;;;;26.04;39.68;100218.47;1614214;88;21133;-73
2022/08/24 08:14:21;;;;;;;13.68;5.25;;;;;;;26.13;39.62;100216.22;1588706;87;21275;-71
2022/08/24 08:16:48;;;;;;;21.87;6.55;;;;;;;26.21;39.38;100219.44;1613664;87;21598;-71
2022/08/24 08:19:16;;;;;;;18.20;4.72;;;;;;;26.29;39.41;100225.45;1613404;88;21622;-73
2022/08/24 08:24:34;;;;;;;20.27;5.78;;;;;;;26.48;39.02;100225.72;1647699;87;21024;-70
2022/08/24 08:27:03;;;;;;;18.27;6.25;;;;;;;26.62;38.48;100229.55;1621184;87;21612;-72
2022/08/24 08:29:32;;;;;;;18.87;5.65;;;;;;;26.69;37.79;100233.34;1585298;89;21948;-71
2022/08/24 08:31:59;;;;;;;24.87;6.87;;;;;;;26.74;38.14;100217.94;1617186;87;20969;-70
2022/08/24 08:34:27;;;;;;;28.38;5.70;;;;;;;26.82;38.03;100226.66;1632509;87;21055;-73
2022/08/24 08:36:54;;;;;;;11.30;5.12;;;;;;;26.92;38.15;100224.63;1636435;87;21019;-72
2022/08/24 08:39:21;;;;;;;17.90;5.20;;;;;;;26.99;37.37;100224.29;1628429;87;21138;-72
2022/08/24 08:42:20;;;;;;;17.75;4.25;;;;;;;27.06;37.38;100227.83;1614267;88;21089;-73
2022/08/24 08:45:07;;;;;;;18.57;4.65;;;;;;;27.09;37.58;100226.59;1634508;87;21604;-74
2022/08/24 08:48:10;;;;;;;21.73;5.62;;;;;;;27.23;37.65;100220.69;1629601;87;21072;-72
2022/08/24 08:50:52;;;;;;;17.12;5.28;;;;;;;27.38;37.57;100225.50;1643244;87;26591;-70
2022/08/24 08:53:30;;;;;;;16.97;5.20;;;;;;;27.56;37.02;100228.23;1601916;89;21520;-72
2022/08/24 08:56:23;;;;;;;24.20;5.03;;;;;;;27.70;36.62;100214.82;1604289;87;21104;-72
2022/08/24 08:59:14;;;;;;;12.65;5.00;;;;;;;27.86;36.22;100222.36;1587607;88;21128;-73
2022/08/24 09:01:54;;;;;;;22.37;5.25;;;;;;;27.99;35.66;100219.76;1590607;90;20973;-73
2022/08/24 09:04:52;;;;;;;18.02;5.95;;;;;;;28.04;35.39;100213.97;1594604;88;21526;-73
2022/08/24 09:07:50;;;;;;;14.07;4.62;;;;;;;28.13;35.63;100221.56;1608939;88;21553;-72
2022/08/24 09:10:34;;;;;;;14.73;5.62;;;;;;;28.30;35.67;100217.67;1579935;89;21921;-73
2022/08/24 09:13:25;;;;;;;22.42;4.92;;;;;;;28.48;34.33;100221.11;1575869;91;21068;-72
2022/08/24 09:16:17;;;;;;;20.72;3.98;;;;;;;28.60;34.56;100211.90;1590912;87;21052;-73
2022/08/24 09:19:21;;;;;;;12.30;4.40;;;;;;;28.74;34.21;100211.47;1626735;87;21024;-72
2022/08/24 09:22:12;;;;;;;11.00;4.05;;;;;;;28.90;32.77;100208.91;1606812;87;21095;-72
2022/08/24 09:24:54;;;;;;;12.88;4.03;;;;;;;29.08;31.71;100214.86;1602417;89;21585;-70
2022/08/24 09:27:55;;;;;;;18.65;4.50;;;;;;;29.22;31.55;100211.59;1603697;87;21110;-74
2022/08/24 09:30:25;;;;;;;24.82;5.58;;;;;;;29.31;31.22;100218.57;1603203;89;21109;-73
2022/08/24 09:33:08;;;;;;;15.32;4.20;;;;;;;29.42;31.14;100220.20;1603703;89;21168;-72
2022/08/24 09:36:07;;;;;;;14.55;4.55;;;;;;;29.56;30.61;100214.14;1621007;87;21247;-73
2022/08/24 09:39:13;;;;;;;15.20;3.95;;;;;;;29.70;30.25;100218.59;1604670;87;21275;-70
2022/08/24 09:42:12;;;;;;;8.05;3.83;;;;;;;29.82;29.71;100216.49;1603763;89;21144;-70
2022/08/24 09:44:57;;;;;;;12.47;3.33;;;;;;;29.96;29.40;100210.44;1539241;90;21087;-73
2022/08/24 09:47:38;;;;;;;8.15;4.58;;;;;;;30.03;29.74;100204.20;1606567;87;21571;-73
2022/08/24 09:50:27;;;;;;;13.90;4.62;;;;;;;30.13;29.59;100205.00;1615990;88;21036;-73
2022/08/24 09:53:18;;;;;;;11.50;4.87;;;;;;;30.23;29.69;100206.58;1595807;90;21153;-73
2022/08/24 09:56:12;;;;;;;12.55;4.55;;;;;;;30.35;29.51;100208.39;1576647;90;21019;-72
2022/08/24 09:59:19;;;;;;;14.53;5.17;;;;;;;30.43;29.52;100205.94;1594963;88;21038;-72
2022/08/24 10:02:27;;;;;;;17.17;4.62;;;;;;;30.53;29.42;100204.55;1607477;87;21057;-73
2022/08/24 10:05:05;;;;;;;10.28;4.80;;;;;;;30.64;29.58;100204.95;1573594;90;21116;-72
2022/08/24 10:08:06;;;;;;;20.85;6.08;;;;;;;30.80;29.31;100205.37;1596180;88;21383;-71
2022/08/24 10:10:47;;;;;;;11.05;4.60;;;;;;;30.88;29.03;100209.30;1591670;88;21535;-73
2022/08/24 10:13:59;;;;;;;10.60;4.37;;;;;;;30.98;28.67;100197.55;1569420;91;21539;-73
2022/08/24 10:16:57;;;;;;;11.88;4.10;;;;;;;31.08;28.71;100199.68;1626120;88;21047;-73
2022/08/24 10:20:07;;;;;;;11.08;4.35;;;;;;;31.22;28.65;100196.91;1570523;91;21051;-72
2022/08/24 10:22:57;;;;;;;7.53;4.03;;;;;;;31.35;28.29;100207.41;1530906;91;21006;-72
2022/08/24 10:25:54;;;;;;;17.95;4.80;;;;;;;31.44;28.03;100199.59;1570210;90;21048;-71
2022/08/24 10:29:00;;;;;;;12.23;4.45;;;;;;;31.53;28.20;100190.95;1536857;91;21123;-73
2022/08/24 10:31:44;;;;;;;7.85;4.45;;;;;;;31.66;28.11;100187.34;1577216;89;21092;-72
2022/08/24 10:34:31;;;;;;;12.88;4.75;;;;;;;31.77;28.27;100191.86;1584132;89;21076;-78
2022/08/24 10:37:20;;;;;;;12.95;3.70;;;;;;;31.87;28.07;100202.91;1560340;89;21190;-70
2022/08/24 10:40:30;;;;;;;13.10;4.37;;;;;;;31.90;27.31;100197.95;1576286;89;21536;-73
2022/08/24 10:43:34;;;;;;;9.70;4.75;;;;;;;31.91;27.46;100200.37;1575329;89;21042;-73
2022/08/24 10:46:37;;;;;;;16.02;5.22;;;;;;;31.96;27.66;100206.18;1581348;89;21130;-73
2022/08/24 10:49:45;;;;;;;28.67;5.45;;;;;;;32.02;27.95;100198.51;1565154;89;27938;-71
2022/08/24 10:52:17;;;;;;;22.98;5.90;;;;;;;32.11;27.85;100196.83;1561871;90;21164;-73
2022/08/24 10:54:44;;;;;;;11.75;4.03;;;;;;;32.20;27.75;100188.97;1562658;90;21032;-71
2022/08/24 10:57:35;;;;;;;12.90;4.35;;;;;;;32.23;27.17;100192.98;1544087;89;21516;-72
2022/08/24 11:00:13;;;;;;;19.10;4.83;;;;;;;32.28;27.40;100198.97;1567928;89;21103;-73
2022/08/24 11:02:43;;;;;;;16.77;5.12;;;;;;;32.42;27.32;100195.55;1578425;89;21084;-71
2022/08/24 11:05:13;;;;;;;27.40;5.12;;;;;;;32.52;26.67;100194.80;1586277;89;22248;-71
2022/08/24 11:07:59;;;;;;;18.05;4.83;;;;;;;32.47;26.69;100193.77;1580489;89;21003;-70
2022/08/24 11:10:31;;;;;;;9.80;4.78;;;;;;;32.53;26.78;100195.61;1568240;89;21154;-74
2022/08/24 11:13:18;;;;;;;12.75;4.03;;;;;;;32.65;26.77;100187.00;1554001;89;21095;-70
2022/08/24 11:15:58;;;;;;;29.48;4.83;;;;;;;32.72;26.73;100182.85;1579722;90;21107;-72
2022/08/24 11:18:26;;;;;;;19.15;4.90;;;;;;;32.77;26.49;100179.70;1577704;90;21171;-71
2022/08/24 11:20:54;;;;;;;19.15;5.72;;;;;;;32.90;26.42;100187.17;1509294;91;21135;-73
2022/08/24 11:23:27;;;;;;;18.73;4.97;;;;;;;33.00;26.39;100186.45;1577965;89;21060;-70
2022/08/24 11:26:06;;;;;;;14.43;5.50;;;;;;;32.99;26.28;100176.48;1568651;91;21131;-71
2022/08/24 11:28:52;;;;;;;25.90;5.75;;;;;;;33.00;26.37;100181.64;1553610;90;21586;-69
2022/08/24 11:31:33;;;;;;;10.95;4.62;;;;;;;33.08;26.30;100179.13;1579957;89;22290;-76
2022/08/24 11:34:24;;;;;;;21.70;4.97;;;;;;;33.12;26.04;100181.92;1576862;89;21083;-71
2022/08/24 11:36:50;;;;;;;12.23;4.28;;;;;;;33.15;26.37;100168.03;1586676;89;21516;-69
2022/08/24 11:39:24;;;;;;;20.77;4.97;;;;;;;33.25;26.12;100177.05;1564110;91;21078;-70
2022/08/24 11:42:03;;;;;;;19.85;4.53;;;;;;;33.26;26.20;100171.67;1584101;89;21055;-76
2022/08/24 11:44:44;;;;;;;13.38;3.52;;;;;;;33.25;26.37;100170.07;1598124;89;21176;-79
2022/08/24 11:47:38;;;;;;;16.45;4.25;;;;;;;33.22;26.26;100171.45;1561885;90;21211;-77
2022/08/24 11:50:51;;;;;;;8.68;4.53;;;;;;;33.27;26.04;100176.66;1593887;89;21591;-68
2022/08/24 11:53:40;;;;;;;;;;;;;;;33.34;26.27;100169.71;1583744;89;21095;-74